sensor_id;sensor_type;location;lat;lon;timestamp;temperature;humidity
5556;DHT22;2801;50.972;7.856;2023-12-20T00:01:08;5.70;99.90
5556;DHT22;2801;50.972;7.856;2023-12-20T00:03:35;5.80;99.90
5556;DHT22;2801;50.972;7.856;2023-12-20T00:06:09;5.80;99.90
5556;DHT22;2801;50.972;7.856;2023-12-20T00:08:37;5.90;99.90
5556;DHT22;2801;50.972;7.856;2023-12-20T00:11:04;5.80;99.90
5556;DHT22;2801;50.972;7.856;2023-12-20T00:13:31;5.80;99.90
5556;DHT22;2801;50.972;7.856;2023-12-20T00:15:59;5.90;99.90
5556;DHT22;2801;50.972;7.856;2023-12-20T00:18:26;5.90;99.90
5556;DHT22;2801;50.972;7.856;2023-12-20T00:20:54;5.90;99.90
5556;DHT22;2801;50.972;7.856;2023-12-20T00:23:21;5.90;99.90
5556;DHT22;2801;50.972;7.856;2023-12-20T00:25:50;5.90;99.90
5556;DHT22;2801;50.972;7.856;2023-12-20T00:28:17;5.90;99.90
5556;DHT22;2801;50.972;7.856;2023-12-20T00:30:44;5.90;99.90
5556;DHT22;2801;50.972;7.856;2023-12-20T00:33:11;5.90;99.90
5556;DHT22;2801;50.972;7.856;2023-12-20T00:35:38;6.00;99.90
5556;DHT22;2801;50.972;7.856;2023-12-20T00:38:07;6.00;99.90
5556;DHT22;2801;50.972;7.856;2023-12-20T00:40:35;6.00;99.90
5556;DHT22;2801;50.972;7.856;2023-12-20T00:43:03;6.00;99.90
5556;DHT22;2801;50.972;7.856;2023-12-20T00:45:30;6.00;99.90
5556;DHT22;2801;50.972;7.856;2023-12-20T00:47:57;6.00;99.90
5556;DHT22;2801;50.972;7.856;2023-12-20T00:50:25;6.00;99.90
5556;DHT22;2801;50.972;7.856;2023-12-20T00:52:56;6.00;99.90
5556;DHT22;2801;50.972;7.856;2023-12-20T00:55:23;6.00;99.90
5556;DHT22;2801;50.972;7.856;2023-12-20T00:57:50;6.00;99.90
5556;DHT22;2801;50.972;7.856;2023-12-20T01:00:17;6.10;99.90
5556;DHT22;2801;50.972;7.856;2023-12-20T01:02:45;6.10;99.90
5556;DHT22;2801;50.972;7.856;2023-12-20T01:05:13;6.00;99.90
5556;DHT22;2801;50.972;7.856;2023-12-20T01:07:40;6.00;99.90
5556;DHT22;2801;50.972;7.856;2023-12-20T01:10:08;6.10;99.90
5556;DHT22;2801;50.972;7.856;2023-12-20T01:12:37;6.10;99.90
5556;DHT22;2801;50.972;7.856;2023-12-20T01:15:05;6.10;99.90
5556;DHT22;2801;50.972;7.856;2023-12-20T01:17:32;6.10;99.90
5556;DHT22;2801;50.972;7.856;2023-12-20T01:19:59;6.10;99.90
5556;DHT22;2801;50.972;7.856;2023-12-20T01:22:27;6.10;99.90
5556;DHT22;2801;50.972;7.856;2023-12-20T01:24:54;6.10;99.90
5556;DHT22;2801;50.972;7.856;2023-12-20T01:27:22;6.20;99.90
5556;DHT22;2801;50.972;7.856;2023-12-20T01:29:49;6.20;99.90
5556;DHT22;2801;50.972;7.856;2023-12-20T01:32:16;6.10;99.90
5556;DHT22;2801;50.972;7.856;2023-12-20T01:34:45;6.10;99.90
5556;DHT22;2801;50.972;7.856;2023-12-20T01:37:12;6.10;99.90
5556;DHT22;2801;50.972;7.856;2023-12-20T01:39:39;6.10;99.90
5556;DHT22;2801;50.972;7.856;2023-12-20T01:42:07;6.00;99.90
5556;DHT22;2801;50.972;7.856;2023-12-20T01:44:34;6.00;99.90
5556;DHT22;2801;50.972;7.856;2023-12-20T01:47:01;5.90;99.90
5556;DHT22;2801;50.972;7.856;2023-12-20T01:49:28;5.80;99.90
5556;DHT22;2801;50.972;7.856;2023-12-20T01:51:56;5.70;99.90
5556;DHT22;2801;50.972;7.856;2023-12-20T01:54:24;5.60;99.90
5556;DHT22;2801;50.972;7.856;2023-12-20T01:56:52;5.50;99.90
5556;DHT22;2801;50.972;7.856;2023-12-20T01:59:20;5.50;99.90
5556;DHT22;2801;50.972;7.856;2023-12-20T02:01:48;5.40;99.90
5556;DHT22;2801;50.972;7.856;2023-12-20T02:04:16;5.30;99.90
5556;DHT22;2801;50.972;7.856;2023-12-20T02:06:43;5.40;99.90
5556;DHT22;2801;50.972;7.856;2023-12-20T02:09:13;5.40;99.90
5556;DHT22;2801;50.972;7.856;2023-12-20T02:11:41;5.30;99.90
5556;DHT22;2801;50.972;7.856;2023-12-20T02:14:09;5.30;99.90
5556;DHT22;2801;50.972;7.856;2023-12-20T02:16:36;5.30;99.90
5556;DHT22;2801;50.972;7.856;2023-12-20T02:19:05;5.30;99.90
5556;DHT22;2801;50.972;7.856;2023-12-20T02:21:41;5.10;99.90
5556;DHT22;2801;50.972;7.856;2023-12-20T02:24:08;5.00;99.90
5556;DHT22;2801;50.972;7.856;2023-12-20T02:26:35;5.00;99.90
5556;DHT22;2801;50.972;7.856;2023-12-20T02:29:02;4.90;99.90
5556;DHT22;2801;50.972;7.856;2023-12-20T02:31:30;4.90;99.90
5556;DHT22;2801;50.972;7.856;2023-12-20T02:33:57;4.90;99.90
5556;DHT22;2801;50.972;7.856;2023-12-20T02:36:24;4.80;99.90
5556;DHT22;2801;50.972;7.856;2023-12-20T02:38:52;4.90;99.90
5556;DHT22;2801;50.972;7.856;2023-12-20T02:41:19;4.90;99.90
5556;DHT22;2801;50.972;7.856;2023-12-20T02:43:47;4.90;99.90
5556;DHT22;2801;50.972;7.856;2023-12-20T02:46:16;5.00;99.90
5556;DHT22;2801;50.972;7.856;2023-12-20T02:48:44;5.00;99.90
5556;DHT22;2801;50.972;7.856;2023-12-20T02:51:12;5.00;99.90
5556;DHT22;2801;50.972;7.856;2023-12-20T02:53:39;5.00;99.90
5556;DHT22;2801;50.972;7.856;2023-12-20T02:56:06;5.00;99.90
5556;DHT22;2801;50.972;7.856;2023-12-20T02:58:33;5.00;99.90
5556;DHT22;2801;50.972;7.856;2023-12-20T03:01:00;5.00;99.90
5556;DHT22;2801;50.972;7.856;2023-12-20T03:03:27;5.10;99.90
5556;DHT22;2801;50.972;7.856;2023-12-20T03:05:55;5.00;99.90
5556;DHT22;2801;50.972;7.856;2023-12-20T03:08:22;5.00;99.90
5556;DHT22;2801;50.972;7.856;2023-12-20T03:10:49;5.00;99.90
5556;DHT22;2801;50.972;7.856;2023-12-20T03:13:17;5.00;99.90
5556;DHT22;2801;50.972;7.856;2023-12-20T03:15:44;5.00;99.90
5556;DHT22;2801;50.972;7.856;2023-12-20T03:18:12;5.00;99.90
5556;DHT22;2801;50.972;7.856;2023-12-20T03:20:39;5.00;99.90
5556;DHT22;2801;50.972;7.856;2023-12-20T03:23:07;5.00;99.90
5556;DHT22;2801;50.972;7.856;2023-12-20T03:25:35;5.00;99.90
5556;DHT22;2801;50.972;7.856;2023-12-20T03:28:02;5.00;99.90
5556;DHT22;2801;50.972;7.856;2023-12-20T03:30:30;5.00;99.90
5556;DHT22;2801;50.972;7.856;2023-12-20T03:32:57;4.90;99.90
5556;DHT22;2801;50.972;7.856;2023-12-20T03:35:24;4.90;99.90
5556;DHT22;2801;50.972;7.856;2023-12-20T03:37:51;4.90;99.90
5556;DHT22;2801;50.972;7.856;2023-12-20T03:40:18;4.90;99.90
5556;DHT22;2801;50.972;7.856;2023-12-20T03:42:45;4.90;99.90
5556;DHT22;2801;50.972;7.856;2023-12-20T03:45:12;4.80;99.90
5556;DHT22;2801;50.972;7.856;2023-12-20T03:47:39;4.80;99.90
5556;DHT22;2801;50.972;7.856;2023-12-20T03:50:06;4.70;99.90
5556;DHT22;2801;50.972;7.856;2023-12-20T03:52:34;4.70;99.90
5556;DHT22;2801;50.972;7.856;2023-12-20T03:55:01;4.70;99.90
5556;DHT22;2801;50.972;7.856;2023-12-20T03:57:28;4.60;99.90
5556;DHT22;2801;50.972;7.856;2023-12-20T03:59:55;4.60;99.90
5556;DHT22;2801;50.972;7.856;2023-12-20T04:02:23;4.60;99.90
5556;DHT22;2801;50.972;7.856;2023-12-20T04:04:50;4.60;99.90
5556;DHT22;2801;50.972;7.856;2023-12-20T04:07:17;4.60;99.90
5556;DHT22;2801;50.972;7.856;2023-12-20T04:09:45;4.60;99.90
5556;DHT22;2801;50.972;7.856;2023-12-20T04:12:12;4.60;99.90
5556;DHT22;2801;50.972;7.856;2023-12-20T04:14:39;4.70;99.90
5556;DHT22;2801;50.972;7.856;2023-12-20T04:17:06;4.60;99.90
5556;DHT22;2801;50.972;7.856;2023-12-20T04:19:34;4.60;99.90
5556;DHT22;2801;50.972;7.856;2023-12-20T04:22:01;4.60;99.90
5556;DHT22;2801;50.972;7.856;2023-12-20T04:24:28;4.60;99.90
5556;DHT22;2801;50.972;7.856;2023-12-20T04:26:56;4.60;99.90
5556;DHT22;2801;50.972;7.856;2023-12-20T04:29:23;4.60;99.90
5556;DHT22;2801;50.972;7.856;2023-12-20T04:31:50;4.60;99.90
5556;DHT22;2801;50.972;7.856;2023-12-20T04:34:18;4.70;99.90
5556;DHT22;2801;50.972;7.856;2023-12-20T04:36:46;4.60;99.90
5556;DHT22;2801;50.972;7.856;2023-12-20T04:39:13;4.60;99.90
5556;DHT22;2801;50.972;7.856;2023-12-20T04:41:42;4.60;99.90
5556;DHT22;2801;50.972;7.856;2023-12-20T04:44:09;4.60;99.90
5556;DHT22;2801;50.972;7.856;2023-12-20T04:46:36;4.50;99.90
5556;DHT22;2801;50.972;7.856;2023-12-20T04:49:03;4.50;99.90
5556;DHT22;2801;50.972;7.856;2023-12-20T04:51:33;4.50;99.90
5556;DHT22;2801;50.972;7.856;2023-12-20T04:54:02;4.50;99.90
5556;DHT22;2801;50.972;7.856;2023-12-20T04:56:29;4.50;99.90
5556;DHT22;2801;50.972;7.856;2023-12-20T04:58:56;4.40;99.90
5556;DHT22;2801;50.972;7.856;2023-12-20T05:01:23;4.50;99.90
5556;DHT22;2801;50.972;7.856;2023-12-20T05:03:52;4.40;99.90
5556;DHT22;2801;50.972;7.856;2023-12-20T05:06:19;4.40;99.90
5556;DHT22;2801;50.972;7.856;2023-12-20T05:08:46;4.30;99.90
5556;DHT22;2801;50.972;7.856;2023-12-20T05:11:14;4.50;99.90
5556;DHT22;2801;50.972;7.856;2023-12-20T05:13:42;4.30;99.90
5556;DHT22;2801;50.972;7.856;2023-12-20T05:16:16;4.30;99.90
5556;DHT22;2801;50.972;7.856;2023-12-20T05:18:47;4.30;99.90
5556;DHT22;2801;50.972;7.856;2023-12-20T05:21:15;4.30;99.90
5556;DHT22;2801;50.972;7.856;2023-12-20T05:23:43;4.30;99.90
5556;DHT22;2801;50.972;7.856;2023-12-20T05:26:10;4.30;99.90
5556;DHT22;2801;50.972;7.856;2023-12-20T05:28:37;4.30;99.90
5556;DHT22;2801;50.972;7.856;2023-12-20T05:31:04;4.30;99.90
5556;DHT22;2801;50.972;7.856;2023-12-20T05:33:32;4.40;99.90
5556;DHT22;2801;50.972;7.856;2023-12-20T05:35:59;4.40;99.90
5556;DHT22;2801;50.972;7.856;2023-12-20T05:38:26;4.30;99.90
5556;DHT22;2801;50.972;7.856;2023-12-20T05:40:53;4.30;99.90
5556;DHT22;2801;50.972;7.856;2023-12-20T05:43:21;4.40;99.90
5556;DHT22;2801;50.972;7.856;2023-12-20T05:45:49;4.30;99.90
5556;DHT22;2801;50.972;7.856;2023-12-20T05:48:16;4.30;99.90
5556;DHT22;2801;50.972;7.856;2023-12-20T05:50:43;4.40;99.90
5556;DHT22;2801;50.972;7.856;2023-12-20T05:53:10;4.40;99.90
5556;DHT22;2801;50.972;7.856;2023-12-20T05:55:37;4.40;99.90
5556;DHT22;2801;50.972;7.856;2023-12-20T05:58:04;4.30;99.90
5556;DHT22;2801;50.972;7.856;2023-12-20T06:00:32;4.40;99.90
5556;DHT22;2801;50.972;7.856;2023-12-20T06:02:59;4.40;99.90
5556;DHT22;2801;50.972;7.856;2023-12-20T06:05:26;4.50;99.90
5556;DHT22;2801;50.972;7.856;2023-12-20T06:07:53;4.50;99.90
5556;DHT22;2801;50.972;7.856;2023-12-20T06:10:21;4.50;99.90
5556;DHT22;2801;50.972;7.856;2023-12-20T06:12:49;4.50;99.90
5556;DHT22;2801;50.972;7.856;2023-12-20T06:15:18;4.50;99.90
5556;DHT22;2801;50.972;7.856;2023-12-20T06:17:45;4.50;99.90
5556;DHT22;2801;50.972;7.856;2023-12-20T06:20:15;4.50;99.90
5556;DHT22;2801;50.972;7.856;2023-12-20T06:22:42;4.50;99.90
5556;DHT22;2801;50.972;7.856;2023-12-20T06:25:09;4.50;99.90
5556;DHT22;2801;50.972;7.856;2023-12-20T06:27:36;4.50;99.90
5556;DHT22;2801;50.972;7.856;2023-12-20T06:30:08;4.50;99.90
5556;DHT22;2801;50.972;7.856;2023-12-20T06:32:36;4.50;99.90
5556;DHT22;2801;50.972;7.856;2023-12-20T06:35:05;4.50;99.90
5556;DHT22;2801;50.972;7.856;2023-12-20T06:37:33;4.50;99.90
5556;DHT22;2801;50.972;7.856;2023-12-20T06:40:00;4.50;99.90
5556;DHT22;2801;50.972;7.856;2023-12-20T06:42:28;4.60;99.90
5556;DHT22;2801;50.972;7.856;2023-12-20T06:44:58;4.50;99.90
5556;DHT22;2801;50.972;7.856;2023-12-20T06:47:26;4.40;99.90
5556;DHT22;2801;50.972;7.856;2023-12-20T06:49:53;4.50;99.90
5556;DHT22;2801;50.972;7.856;2023-12-20T06:52:21;4.50;99.90
5556;DHT22;2801;50.972;7.856;2023-12-20T06:54:48;4.50;99.90
5556;DHT22;2801;50.972;7.856;2023-12-20T06:57:15;4.40;99.90
5556;DHT22;2801;50.972;7.856;2023-12-20T06:59:42;4.40;99.90
5556;DHT22;2801;50.972;7.856;2023-12-20T07:02:09;4.50;99.90
5556;DHT22;2801;50.972;7.856;2023-12-20T07:04:41;4.40;99.90
5556;DHT22;2801;50.972;7.856;2023-12-20T07:07:09;4.40;99.90
5556;DHT22;2801;50.972;7.856;2023-12-20T07:09:36;4.40;99.90
5556;DHT22;2801;50.972;7.856;2023-12-20T07:12:04;4.50;99.90
5556;DHT22;2801;50.972;7.856;2023-12-20T07:14:33;4.50;99.90
5556;DHT22;2801;50.972;7.856;2023-12-20T07:17:00;4.40;99.90
5556;DHT22;2801;50.972;7.856;2023-12-20T07:19:27;4.40;99.90
5556;DHT22;2801;50.972;7.856;2023-12-20T07:21:55;4.40;99.90
5556;DHT22;2801;50.972;7.856;2023-12-20T07:24:22;4.40;99.90
5556;DHT22;2801;50.972;7.856;2023-12-20T07:26:49;4.50;99.90
5556;DHT22;2801;50.972;7.856;2023-12-20T07:29:17;4.40;99.90
5556;DHT22;2801;50.972;7.856;2023-12-20T07:31:44;4.40;99.90
5556;DHT22;2801;50.972;7.856;2023-12-20T07:34:11;4.40;99.90
5556;DHT22;2801;50.972;7.856;2023-12-20T07:36:38;4.40;99.90
5556;DHT22;2801;50.972;7.856;2023-12-20T07:39:06;4.40;99.90
5556;DHT22;2801;50.972;7.856;2023-12-20T07:41:36;4.40;99.90
5556;DHT22;2801;50.972;7.856;2023-12-20T07:44:04;4.40;99.90
5556;DHT22;2801;50.972;7.856;2023-12-20T07:46:33;4.40;99.90
5556;DHT22;2801;50.972;7.856;2023-12-20T07:49:00;4.50;99.90
5556;DHT22;2801;50.972;7.856;2023-12-20T07:51:27;4.50;99.90
5556;DHT22;2801;50.972;7.856;2023-12-20T07:53:55;4.40;99.90
5556;DHT22;2801;50.972;7.856;2023-12-20T07:56:22;4.50;99.90
5556;DHT22;2801;50.972;7.856;2023-12-20T07:58:49;4.60;99.90
5556;DHT22;2801;50.972;7.856;2023-12-20T08:01:20;4.50;99.90
5556;DHT22;2801;50.972;7.856;2023-12-20T08:03:49;4.50;99.90
5556;DHT22;2801;50.972;7.856;2023-12-20T08:06:17;4.50;99.90
5556;DHT22;2801;50.972;7.856;2023-12-20T08:08:45;4.50;99.90
5556;DHT22;2801;50.972;7.856;2023-12-20T08:11:21;4.40;99.90
5556;DHT22;2801;50.972;7.856;2023-12-20T08:13:50;4.50;99.90
5556;DHT22;2801;50.972;7.856;2023-12-20T08:16:17;4.50;99.90
5556;DHT22;2801;50.972;7.856;2023-12-20T08:18:45;4.50;99.90
5556;DHT22;2801;50.972;7.856;2023-12-20T08:21:14;4.50;99.90
5556;DHT22;2801;50.972;7.856;2023-12-20T08:23:41;4.50;99.90
5556;DHT22;2801;50.972;7.856;2023-12-20T08:26:08;4.50;99.90
5556;DHT22;2801;50.972;7.856;2023-12-20T08:28:36;4.50;99.90
5556;DHT22;2801;50.972;7.856;2023-12-20T08:31:03;4.40;99.90
5556;DHT22;2801;50.972;7.856;2023-12-20T08:33:32;4.50;99.90
5556;DHT22;2801;50.972;7.856;2023-12-20T08:35:59;4.40;99.90
5556;DHT22;2801;50.972;7.856;2023-12-20T08:38:26;4.40;99.90
5556;DHT22;2801;50.972;7.856;2023-12-20T08:40:53;4.50;99.90
5556;DHT22;2801;50.972;7.856;2023-12-20T08:43:20;4.40;99.90
5556;DHT22;2801;50.972;7.856;2023-12-20T08:45:47;4.50;99.90
5556;DHT22;2801;50.972;7.856;2023-12-20T08:48:15;4.40;99.90
5556;DHT22;2801;50.972;7.856;2023-12-20T08:50:43;4.50;99.90
5556;DHT22;2801;50.972;7.856;2023-12-20T08:53:10;4.40;99.90
5556;DHT22;2801;50.972;7.856;2023-12-20T08:55:37;4.40;99.90
5556;DHT22;2801;50.972;7.856;2023-12-20T08:58:05;4.50;99.90
5556;DHT22;2801;50.972;7.856;2023-12-20T09:00:35;4.50;99.90
5556;DHT22;2801;50.972;7.856;2023-12-20T09:03:02;4.50;99.90
5556;DHT22;2801;50.972;7.856;2023-12-20T09:05:30;4.50;99.90
5556;DHT22;2801;50.972;7.856;2023-12-20T09:07:57;4.50;99.90
5556;DHT22;2801;50.972;7.856;2023-12-20T09:10:24;4.50;99.90
5556;DHT22;2801;50.972;7.856;2023-12-20T09:12:53;4.60;99.90
5556;DHT22;2801;50.972;7.856;2023-12-20T09:15:25;4.50;99.90
5556;DHT22;2801;50.972;7.856;2023-12-20T09:17:53;4.50;99.90
5556;DHT22;2801;50.972;7.856;2023-12-20T09:20:22;4.60;99.90
5556;DHT22;2801;50.972;7.856;2023-12-20T09:22:50;4.50;99.90
5556;DHT22;2801;50.972;7.856;2023-12-20T09:25:17;4.50;99.90
5556;DHT22;2801;50.972;7.856;2023-12-20T09:27:45;4.50;99.90
5556;DHT22;2801;50.972;7.856;2023-12-20T09:30:12;4.50;99.90
5556;DHT22;2801;50.972;7.856;2023-12-20T09:32:51;4.50;99.90
5556;DHT22;2801;50.972;7.856;2023-12-20T09:35:18;4.50;99.90
5556;DHT22;2801;50.972;7.856;2023-12-20T09:37:49;4.50;99.90
5556;DHT22;2801;50.972;7.856;2023-12-20T09:40:19;4.60;99.90
5556;DHT22;2801;50.972;7.856;2023-12-20T09:42:57;4.50;99.90
5556;DHT22;2801;50.972;7.856;2023-12-20T09:45:26;4.50;99.90
5556;DHT22;2801;50.972;7.856;2023-12-20T09:47:54;4.50;99.90
5556;DHT22;2801;50.972;7.856;2023-12-20T09:50:22;4.50;99.90
5556;DHT22;2801;50.972;7.856;2023-12-20T09:52:51;4.60;99.90
5556;DHT22;2801;50.972;7.856;2023-12-20T09:55:19;4.50;99.90
5556;DHT22;2801;50.972;7.856;2023-12-20T09:57:49;4.60;99.90
5556;DHT22;2801;50.972;7.856;2023-12-20T10:00:17;4.60;99.90
5556;DHT22;2801;50.972;7.856;2023-12-20T10:03:05;4.60;99.90
5556;DHT22;2801;50.972;7.856;2023-12-20T10:05:34;4.50;99.90
5556;DHT22;2801;50.972;7.856;2023-12-20T10:08:02;4.60;99.90
5556;DHT22;2801;50.972;7.856;2023-12-20T10:10:30;4.60;99.90
5556;DHT22;2801;50.972;7.856;2023-12-20T10:13:12;4.50;99.90
5556;DHT22;2801;50.972;7.856;2023-12-20T10:15:40;4.60;99.90
5556;DHT22;2801;50.972;7.856;2023-12-20T10:18:09;4.60;99.90
5556;DHT22;2801;50.972;7.856;2023-12-20T10:20:40;4.60;99.90
5556;DHT22;2801;50.972;7.856;2023-12-20T10:23:08;4.60;99.90
5556;DHT22;2801;50.972;7.856;2023-12-20T10:25:36;4.60;99.90
5556;DHT22;2801;50.972;7.856;2023-12-20T10:30:38;4.60;99.90
5556;DHT22;2801;50.972;7.856;2023-12-20T10:33:07;4.60;99.90
5556;DHT22;2801;50.972;7.856;2023-12-20T10:35:35;4.50;99.90
5556;DHT22;2801;50.972;7.856;2023-12-20T10:38:06;4.70;99.90
5556;DHT22;2801;50.972;7.856;2023-12-20T10:40:36;4.60;99.90
5556;DHT22;2801;50.972;7.856;2023-12-20T10:43:05;4.60;99.90
5556;DHT22;2801;50.972;7.856;2023-12-20T10:45:33;4.60;99.90
5556;DHT22;2801;50.972;7.856;2023-12-20T10:48:01;4.60;99.90
5556;DHT22;2801;50.972;7.856;2023-12-20T10:50:31;4.60;99.90
5556;DHT22;2801;50.972;7.856;2023-12-20T10:52:58;4.60;99.90
5556;DHT22;2801;50.972;7.856;2023-12-20T10:55:27;4.60;99.90
5556;DHT22;2801;50.972;7.856;2023-12-20T10:58:01;4.70;99.90
5556;DHT22;2801;50.972;7.856;2023-12-20T11:00:32;4.60;99.90
5556;DHT22;2801;50.972;7.856;2023-12-20T11:03:06;4.70;99.90
5556;DHT22;2801;50.972;7.856;2023-12-20T11:05:42;4.70;99.90
5556;DHT22;2801;50.972;7.856;2023-12-20T11:10:58;4.70;99.90
5556;DHT22;2801;50.972;7.856;2023-12-20T11:13:37;4.70;99.90
5556;DHT22;2801;50.972;7.856;2023-12-20T11:16:25;4.70;99.90
5556;DHT22;2801;50.972;7.856;2023-12-20T11:18:55;4.70;99.90
5556;DHT22;2801;50.972;7.856;2023-12-20T11:21:22;4.80;99.90
5556;DHT22;2801;50.972;7.856;2023-12-20T11:23:49;4.70;99.90
5556;DHT22;2801;50.972;7.856;2023-12-20T11:26:22;4.80;99.90
5556;DHT22;2801;50.972;7.856;2023-12-20T11:28:54;4.80;99.90
5556;DHT22;2801;50.972;7.856;2023-12-20T11:31:41;4.80;99.90
5556;DHT22;2801;50.972;7.856;2023-12-20T11:34:14;4.70;99.90
5556;DHT22;2801;50.972;7.856;2023-12-20T11:36:44;4.80;99.90
5556;DHT22;2801;50.972;7.856;2023-12-20T11:39:11;4.80;99.90
5556;DHT22;2801;50.972;7.856;2023-12-20T11:41:49;4.80;99.90
5556;DHT22;2801;50.972;7.856;2023-12-20T11:44:17;4.80;99.90
5556;DHT22;2801;50.972;7.856;2023-12-20T11:46:44;4.80;99.90
5556;DHT22;2801;50.972;7.856;2023-12-20T11:49:11;4.80;99.90
5556;DHT22;2801;50.972;7.856;2023-12-20T11:51:42;4.80;99.90
5556;DHT22;2801;50.972;7.856;2023-12-20T11:54:10;4.80;99.90
5556;DHT22;2801;50.972;7.856;2023-12-20T11:56:37;4.80;99.90
5556;DHT22;2801;50.972;7.856;2023-12-20T11:59:04;4.80;99.90
5556;DHT22;2801;50.972;7.856;2023-12-20T12:01:49;4.80;99.90
5556;DHT22;2801;50.972;7.856;2023-12-20T12:04:18;4.80;99.90
5556;DHT22;2801;50.972;7.856;2023-12-20T12:06:46;4.80;99.90
5556;DHT22;2801;50.972;7.856;2023-12-20T12:09:13;4.80;99.90
5556;DHT22;2801;50.972;7.856;2023-12-20T12:11:42;4.80;99.90
5556;DHT22;2801;50.972;7.856;2023-12-20T12:14:10;4.80;99.90
5556;DHT22;2801;50.972;7.856;2023-12-20T12:16:37;4.80;99.90
5556;DHT22;2801;50.972;7.856;2023-12-20T12:19:05;4.80;99.90
5556;DHT22;2801;50.972;7.856;2023-12-20T12:21:32;4.80;99.90
5556;DHT22;2801;50.972;7.856;2023-12-20T12:24:09;4.80;99.90
5556;DHT22;2801;50.972;7.856;2023-12-20T12:26:37;4.80;99.90
5556;DHT22;2801;50.972;7.856;2023-12-20T12:29:07;4.90;99.90
5556;DHT22;2801;50.972;7.856;2023-12-20T12:31:34;4.90;99.90
5556;DHT22;2801;50.972;7.856;2023-12-20T12:34:03;4.90;99.90
5556;DHT22;2801;50.972;7.856;2023-12-20T12:36:31;4.90;99.90
5556;DHT22;2801;50.972;7.856;2023-12-20T12:39:02;4.90;99.90
5556;DHT22;2801;50.972;7.856;2023-12-20T12:41:32;4.90;99.90
5556;DHT22;2801;50.972;7.856;2023-12-20T12:43:59;4.90;99.90
5556;DHT22;2801;50.972;7.856;2023-12-20T12:46:40;4.90;99.90
5556;DHT22;2801;50.972;7.856;2023-12-20T12:49:07;5.00;99.90
5556;DHT22;2801;50.972;7.856;2023-12-20T12:51:35;4.90;99.90
5556;DHT22;2801;50.972;7.856;2023-12-20T12:54:02;4.90;99.90
5556;DHT22;2801;50.972;7.856;2023-12-20T12:56:30;4.90;99.90
5556;DHT22;2801;50.972;7.856;2023-12-20T12:58:58;4.90;99.90
5556;DHT22;2801;50.972;7.856;2023-12-20T13:01:25;5.00;99.90
5556;DHT22;2801;50.972;7.856;2023-12-20T13:03:52;4.90;99.90
5556;DHT22;2801;50.972;7.856;2023-12-20T13:06:20;5.00;99.90
5556;DHT22;2801;50.972;7.856;2023-12-20T13:08:47;4.90;99.90
5556;DHT22;2801;50.972;7.856;2023-12-20T13:11:14;4.90;99.90
5556;DHT22;2801;50.972;7.856;2023-12-20T13:13:42;5.00;99.90
5556;DHT22;2801;50.972;7.856;2023-12-20T13:16:09;5.00;99.90
5556;DHT22;2801;50.972;7.856;2023-12-20T13:18:37;5.00;99.90
5556;DHT22;2801;50.972;7.856;2023-12-20T13:21:06;5.00;99.90
5556;DHT22;2801;50.972;7.856;2023-12-20T13:23:34;5.00;99.90
5556;DHT22;2801;50.972;7.856;2023-12-20T13:26:07;5.10;99.90
5556;DHT22;2801;50.972;7.856;2023-12-20T13:28:34;5.10;99.90
5556;DHT22;2801;50.972;7.856;2023-12-20T13:31:01;5.00;99.90
5556;DHT22;2801;50.972;7.856;2023-12-20T13:33:30;5.10;99.90
5556;DHT22;2801;50.972;7.856;2023-12-20T13:35:57;5.00;99.90
5556;DHT22;2801;50.972;7.856;2023-12-20T13:38:25;5.10;99.90
5556;DHT22;2801;50.972;7.856;2023-12-20T13:40:52;5.00;99.90
5556;DHT22;2801;50.972;7.856;2023-12-20T13:43:19;5.00;99.90
5556;DHT22;2801;50.972;7.856;2023-12-20T13:45:48;5.00;99.90
5556;DHT22;2801;50.972;7.856;2023-12-20T13:48:15;5.00;99.90
5556;DHT22;2801;50.972;7.856;2023-12-20T13:50:43;5.00;99.90
5556;DHT22;2801;50.972;7.856;2023-12-20T13:53:11;5.00;99.90
5556;DHT22;2801;50.972;7.856;2023-12-20T13:55:38;5.00;99.90
5556;DHT22;2801;50.972;7.856;2023-12-20T13:58:05;5.00;99.90
5556;DHT22;2801;50.972;7.856;2023-12-20T14:00:32;5.00;99.90
5556;DHT22;2801;50.972;7.856;2023-12-20T14:02:59;5.10;99.90
5556;DHT22;2801;50.972;7.856;2023-12-20T14:05:27;5.10;99.90
5556;DHT22;2801;50.972;7.856;2023-12-20T14:07:55;5.00;99.90
5556;DHT22;2801;50.972;7.856;2023-12-20T14:10:24;5.00;99.90
5556;DHT22;2801;50.972;7.856;2023-12-20T14:12:55;5.10;99.90
5556;DHT22;2801;50.972;7.856;2023-12-20T14:15:22;5.00;99.90
5556;DHT22;2801;50.972;7.856;2023-12-20T14:17:53;5.00;99.90
5556;DHT22;2801;50.972;7.856;2023-12-20T14:20:20;5.10;99.90
5556;DHT22;2801;50.972;7.856;2023-12-20T14:22:47;5.10;99.90
5556;DHT22;2801;50.972;7.856;2023-12-20T14:25:14;5.10;99.90
5556;DHT22;2801;50.972;7.856;2023-12-20T14:27:42;5.10;99.90
5556;DHT22;2801;50.972;7.856;2023-12-20T14:30:13;5.00;99.90
5556;DHT22;2801;50.972;7.856;2023-12-20T14:32:42;5.00;99.90
5556;DHT22;2801;50.972;7.856;2023-12-20T14:35:10;5.10;99.90
5556;DHT22;2801;50.972;7.856;2023-12-20T14:37:37;5.10;99.90
5556;DHT22;2801;50.972;7.856;2023-12-20T14:40:08;5.10;99.90
5556;DHT22;2801;50.972;7.856;2023-12-20T14:42:43;5.10;99.90
5556;DHT22;2801;50.972;7.856;2023-12-20T14:45:11;5.10;99.90
5556;DHT22;2801;50.972;7.856;2023-12-20T14:47:40;5.10;99.90
5556;DHT22;2801;50.972;7.856;2023-12-20T14:50:07;5.10;99.90
5556;DHT22;2801;50.972;7.856;2023-12-20T14:52:35;5.10;99.90
5556;DHT22;2801;50.972;7.856;2023-12-20T14:55:03;5.10;99.90
5556;DHT22;2801;50.972;7.856;2023-12-20T14:57:33;5.00;99.90
5556;DHT22;2801;50.972;7.856;2023-12-20T15:00:00;5.10;99.90
5556;DHT22;2801;50.972;7.856;2023-12-20T15:02:27;5.10;99.90
5556;DHT22;2801;50.972;7.856;2023-12-20T15:04:54;5.10;99.90
5556;DHT22;2801;50.972;7.856;2023-12-20T15:07:23;5.10;99.90
5556;DHT22;2801;50.972;7.856;2023-12-20T15:09:51;5.20;99.90
5556;DHT22;2801;50.972;7.856;2023-12-20T15:12:17;5.20;99.90
5556;DHT22;2801;50.972;7.856;2023-12-20T15:14:45;5.10;99.90
5556;DHT22;2801;50.972;7.856;2023-12-20T15:17:12;5.10;99.90
5556;DHT22;2801;50.972;7.856;2023-12-20T15:19:39;5.20;99.90
5556;DHT22;2801;50.972;7.856;2023-12-20T15:22:06;5.20;99.90
5556;DHT22;2801;50.972;7.856;2023-12-20T15:24:33;5.20;99.90
5556;DHT22;2801;50.972;7.856;2023-12-20T15:27:06;5.20;99.90
5556;DHT22;2801;50.972;7.856;2023-12-20T15:29:34;5.20;99.90
5556;DHT22;2801;50.972;7.856;2023-12-20T15:32:01;5.20;99.90
5556;DHT22;2801;50.972;7.856;2023-12-20T15:34:30;5.20;99.90
5556;DHT22;2801;50.972;7.856;2023-12-20T15:36:58;5.20;99.90
5556;DHT22;2801;50.972;7.856;2023-12-20T15:39:25;5.20;99.90
5556;DHT22;2801;50.972;7.856;2023-12-20T15:41:52;5.20;99.90
5556;DHT22;2801;50.972;7.856;2023-12-20T15:44:24;5.20;99.90
5556;DHT22;2801;50.972;7.856;2023-12-20T15:46:51;5.20;99.90
5556;DHT22;2801;50.972;7.856;2023-12-20T15:49:18;5.30;99.90
5556;DHT22;2801;50.972;7.856;2023-12-20T15:51:45;5.20;99.90
5556;DHT22;2801;50.972;7.856;2023-12-20T15:54:13;5.20;99.90
5556;DHT22;2801;50.972;7.856;2023-12-20T15:56:40;5.20;99.90
5556;DHT22;2801;50.972;7.856;2023-12-20T15:59:08;5.30;99.90
5556;DHT22;2801;50.972;7.856;2023-12-20T16:01:36;5.20;99.90
5556;DHT22;2801;50.972;7.856;2023-12-20T16:04:03;5.30;99.90
5556;DHT22;2801;50.972;7.856;2023-12-20T16:06:32;5.20;99.90
5556;DHT22;2801;50.972;7.856;2023-12-20T16:09:01;5.30;99.90
5556;DHT22;2801;50.972;7.856;2023-12-20T16:11:29;5.20;99.90
5556;DHT22;2801;50.972;7.856;2023-12-20T16:13:56;5.20;99.90
5556;DHT22;2801;50.972;7.856;2023-12-20T16:16:24;5.30;99.90
5556;DHT22;2801;50.972;7.856;2023-12-20T16:18:51;5.30;99.90
5556;DHT22;2801;50.972;7.856;2023-12-20T16:21:18;5.20;99.90
5556;DHT22;2801;50.972;7.856;2023-12-20T16:23:46;5.30;99.90
5556;DHT22;2801;50.972;7.856;2023-12-20T16:26:13;5.30;99.90
5556;DHT22;2801;50.972;7.856;2023-12-20T16:28:40;5.30;99.90